EWG14PJ EDDL-EGJJ
Flight info
| Callsign | EWG14PJ |
|---|---|
| Flight time | 1h 8m |
| Altitude | 30000 |
| Route | MODRU7Z MODRU Z717 MAS UM617 CIV/N0454F290 DCT KOVIN DCT NIDUV DCT KIHVI UN872 PON UT300 ELCOB/N0453F300 UT300 SENLO G274 BEVAV |
| Aircraft | A319/M-SDE3FGHIRWY/LB1 |
Departure
| Time | 2026-05-06 17:30 |
|---|---|
| Airport | Düsseldorf Airport (EDDL) |
Arrival
| Time | 2026-05-06 18:38 |
|---|---|
| Airport | Jersey Airport (EGJJ) |
| Time | Latitude | Longitude | Altitude | Speed | Heading |
|---|---|---|---|---|---|
| 2026-05-06 17:03 | 51.28059 | 6.76699 | 118 ft | 0 kts | 276° |
| 2026-05-06 17:22 | 51.28058 | 6.76735 | 113 ft | 4 kts | 267° |
| 2026-05-06 17:22 | 51.28059 | 6.76777 | 114 ft | 4 kts | 292° |
| 2026-05-06 17:22 | 51.28060 | 6.76788 | 118 ft | 0 kts | 17° |
| 2026-05-06 17:25 | 51.28063 | 6.76789 | 118 ft | 2 kts | 17° |
| 2026-05-06 17:25 | 51.28093 | 6.76804 | 117 ft | 7 kts | 17° |
| 2026-05-06 17:25 | 51.28154 | 6.76831 | 116 ft | 10 kts | 13° |
| 2026-05-06 17:25 | 51.28224 | 6.76846 | 118 ft | 11 kts | 6° |
| 2026-05-06 17:26 | 51.28296 | 6.76820 | 116 ft | 11 kts | 325° |
| 2026-05-06 17:26 | 51.28361 | 6.76739 | 117 ft | 12 kts | 321° |
| 2026-05-06 17:26 | 51.28414 | 6.76664 | 118 ft | 9 kts | 301° |
| 2026-05-06 17:26 | 51.28392 | 6.76569 | 117 ft | 11 kts | 232° |
| 2026-05-06 17:27 | 51.28331 | 6.76444 | 116 ft | 17 kts | 233° |
| 2026-05-06 17:27 | 51.28248 | 6.76268 | 117 ft | 22 kts | 232° |
| 2026-05-06 17:27 | 51.28143 | 6.76046 | 116 ft | 28 kts | 233° |
| 2026-05-06 17:27 | 51.28021 | 6.75790 | 117 ft | 28 kts | 233° |
| 2026-05-06 17:28 | 51.27942 | 6.75624 | 116 ft | 16 kts | 232° |
| 2026-05-06 17:28 | 51.27876 | 6.75485 | 118 ft | 16 kts | 233° |
| 2026-05-06 17:28 | 51.27841 | 6.75369 | 116 ft | 11 kts | 277° |
| 2026-05-06 17:28 | 51.27906 | 6.75296 | 116 ft | 14 kts | 335° |
| 2026-05-06 17:29 | 51.28008 | 6.75301 | 113 ft | 17 kts | 42° |
| 2026-05-06 17:29 | 51.28110 | 6.75511 | 115 ft | 49 kts | 52° |
| 2026-05-06 17:29 | 51.28479 | 6.76280 | 117 ft | 122 kts | 52° |
| 2026-05-06 17:29 | 51.29118 | 6.77562 | 312 ft | 156 kts | 48° |
| 2026-05-06 17:30 | 51.29749 | 6.78895 | 1152 ft | 147 kts | 52° |
| 2026-05-06 17:30 | 51.30359 | 6.80232 | 1816 ft | 155 kts | 52° |
| 2026-05-06 17:30 | 51.31048 | 6.81701 | 2224 ft | 176 kts | 52° |
| 2026-05-06 17:30 | 51.31834 | 6.83363 | 2608 ft | 199 kts | 52° |
| 2026-05-06 17:31 | 51.32840 | 6.85046 | 2994 ft | 222 kts | 32° |
| 2026-05-06 17:31 | 51.34407 | 6.85676 | 3472 ft | 249 kts | 355° |
| 2026-05-06 17:31 | 51.36005 | 6.84525 | 4309 ft | 262 kts | 318° |
| 2026-05-06 17:31 | 51.36903 | 6.82015 | 5263 ft | 271 kts | 283° |
| 2026-05-06 17:32 | 51.36747 | 6.78973 | 6260 ft | 278 kts | 249° |
| 2026-05-06 17:32 | 51.35762 | 6.76339 | 7198 ft | 281 kts | 232° |
| 2026-05-06 17:32 | 51.34460 | 6.73969 | 8152 ft | 285 kts | 227° |
| 2026-05-06 17:32 | 51.33075 | 6.71665 | 9067 ft | 288 kts | 227° |
| 2026-05-06 17:33 | 51.31694 | 6.69308 | 9970 ft | 292 kts | 229° |
| 2026-05-06 17:33 | 51.30306 | 6.66798 | 10405 ft | 313 kts | 230° |
| 2026-05-06 17:33 | 51.28856 | 6.64025 | 10682 ft | 336 kts | 232° |
| 2026-05-06 17:33 | 51.27358 | 6.61039 | 11188 ft | 349 kts | 232° |
| 2026-05-06 17:34 | 51.25852 | 6.57963 | 11938 ft | 354 kts | 233° |
| 2026-05-06 17:34 | 51.24337 | 6.54841 | 12745 ft | 357 kts | 233° |
| 2026-05-06 17:34 | 51.22812 | 6.51694 | 13542 ft | 360 kts | 233° |
| 2026-05-06 17:34 | 51.21271 | 6.48523 | 14245 ft | 363 kts | 233° |
| 2026-05-06 17:35 | 51.19716 | 6.45339 | 14949 ft | 365 kts | 232° |
| 2026-05-06 17:35 | 51.18146 | 6.42138 | 15650 ft | 368 kts | 232° |
| 2026-05-06 17:35 | 51.16559 | 6.38915 | 16366 ft | 370 kts | 232° |
| 2026-05-06 17:36 | 51.13372 | 6.32451 | 17712 ft | 376 kts | 231° |
| 2026-05-06 17:36 | 51.11746 | 6.29164 | 18341 ft | 380 kts | 231° |
| 2026-05-06 17:36 | 51.10102 | 6.25839 | 18914 ft | 383 kts | 231° |
| 2026-05-06 17:36 | 51.08443 | 6.22485 | 19488 ft | 387 kts | 231° |
| 2026-05-06 17:37 | 51.06773 | 6.19112 | 20061 ft | 390 kts | 231° |
| 2026-05-06 17:37 | 51.05085 | 6.15712 | 20630 ft | 393 kts | 231° |
| 2026-05-06 17:37 | 51.03378 | 6.12286 | 21181 ft | 397 kts | 231° |
| 2026-05-06 17:37 | 51.01709 | 6.08777 | 21712 ft | 400 kts | 236° |
| 2026-05-06 17:38 | 51.00313 | 6.04928 | 22238 ft | 404 kts | 240° |
| 2026-05-06 17:38 | 50.98946 | 6.01017 | 22763 ft | 407 kts | 240° |
| 2026-05-06 17:38 | 50.97575 | 5.97062 | 23280 ft | 411 kts | 243° |
| 2026-05-06 17:38 | 50.96556 | 5.92825 | 23702 ft | 415 kts | 253° |
| 2026-05-06 17:39 | 50.95801 | 5.88385 | 24124 ft | 418 kts | 254° |
| 2026-05-06 17:39 | 50.95037 | 5.83922 | 24533 ft | 420 kts | 253° |
| 2026-05-06 17:39 | 50.94255 | 5.79441 | 24948 ft | 423 kts | 253° |
| 2026-05-06 17:39 | 50.93457 | 5.74943 | 25357 ft | 425 kts | 253° |
| 2026-05-06 17:40 | 50.92647 | 5.70420 | 25762 ft | 428 kts | 253° |
| 2026-05-06 17:40 | 50.91831 | 5.65872 | 26176 ft | 430 kts | 253° |
| 2026-05-06 17:40 | 50.91009 | 5.61297 | 26582 ft | 433 kts | 253° |
| 2026-05-06 17:40 | 50.90184 | 5.56703 | 26988 ft | 435 kts | 253° |
| 2026-05-06 17:41 | 50.89348 | 5.52078 | 27391 ft | 437 kts | 252° |
| 2026-05-06 17:41 | 50.88505 | 5.47440 | 27790 ft | 440 kts | 252° |
| 2026-05-06 17:41 | 50.87653 | 5.42771 | 28185 ft | 442 kts | 252° |
| 2026-05-06 17:41 | 50.86801 | 5.38085 | 28550 ft | 444 kts | 252° |
| 2026-05-06 17:42 | 50.85943 | 5.33367 | 28910 ft | 447 kts | 252° |
| 2026-05-06 17:42 | 50.85081 | 5.28634 | 29281 ft | 449 kts | 252° |
| 2026-05-06 17:42 | 50.84212 | 5.23879 | 29633 ft | 451 kts | 252° |
| 2026-05-06 17:42 | 50.83334 | 5.19108 | 29868 ft | 452 kts | 252° |
| 2026-05-06 17:43 | 50.81600 | 5.09726 | 29897 ft | 441 kts | 252° |
| 2026-05-06 17:43 | 50.79909 | 5.00635 | 29898 ft | 440 kts | 252° |
| 2026-05-06 17:44 | 50.78186 | 4.91347 | 29901 ft | 440 kts | 252° |
| 2026-05-06 17:44 | 50.76455 | 4.82081 | 29906 ft | 440 kts | 252° |
| 2026-05-06 17:45 | 50.74716 | 4.72860 | 29908 ft | 439 kts | 252° |
| 2026-05-06 17:45 | 50.72963 | 4.63620 | 29916 ft | 439 kts | 252° |
| 2026-05-06 17:46 | 50.71209 | 4.54367 | 29909 ft | 439 kts | 252° |
| 2026-05-06 17:46 | 50.69446 | 4.45114 | 29907 ft | 439 kts | 252° |
| 2026-05-06 17:47 | 50.67693 | 4.35937 | 29881 ft | 439 kts | 252° |
| 2026-05-06 17:47 | 50.65913 | 4.26716 | 29884 ft | 440 kts | 252° |
| 2026-05-06 17:48 | 50.64117 | 4.17497 | 29883 ft | 440 kts | 252° |
| 2026-05-06 17:48 | 50.62298 | 4.08218 | 29886 ft | 440 kts | 252° |
| 2026-05-06 17:49 | 50.60492 | 3.99005 | 29884 ft | 441 kts | 252° |
| 2026-05-06 17:49 | 50.58338 | 3.90012 | 29895 ft | 439 kts | 239° |
| 2026-05-06 17:50 | 50.54511 | 3.82621 | 29890 ft | 437 kts | 219° |
| 2026-05-06 17:50 | 50.49331 | 3.77760 | 29894 ft | 435 kts | 202° |
| 2026-05-06 17:51 | 50.43801 | 3.74028 | 29891 ft | 436 kts | 202° |
| 2026-05-06 17:51 | 50.38237 | 3.70237 | 29894 ft | 436 kts | 203° |
| 2026-05-06 17:52 | 50.32673 | 3.66451 | 29898 ft | 436 kts | 203° |
| 2026-05-06 17:52 | 50.27096 | 3.62677 | 29897 ft | 436 kts | 203° |
| 2026-05-06 17:53 | 50.21521 | 3.58922 | 29899 ft | 436 kts | 203° |
| 2026-05-06 17:53 | 50.15945 | 3.55175 | 29903 ft | 436 kts | 203° |
| 2026-05-06 17:54 | 50.10370 | 3.51435 | 29905 ft | 436 kts | 203° |
| 2026-05-06 17:54 | 50.04795 | 3.47704 | 29908 ft | 436 kts | 203° |
| 2026-05-06 17:55 | 50.00126 | 3.44590 | 29904 ft | 436 kts | 202° |
| 2026-05-06 17:55 | 49.94555 | 3.40886 | 29901 ft | 436 kts | 202° |
| 2026-05-06 17:56 | 49.88975 | 3.37176 | 29895 ft | 436 kts | 202° |
| 2026-05-06 17:56 | 49.83393 | 3.33477 | 29894 ft | 436 kts | 202° |
| 2026-05-06 17:57 | 49.77843 | 3.29812 | 29895 ft | 436 kts | 202° |
| 2026-05-06 17:57 | 49.72254 | 3.26132 | 29897 ft | 437 kts | 202° |
| 2026-05-06 17:58 | 49.66664 | 3.22457 | 29893 ft | 437 kts | 202° |
| 2026-05-06 17:58 | 49.61066 | 3.18781 | 29895 ft | 437 kts | 202° |
| 2026-05-06 17:59 | 49.55431 | 3.15084 | 29899 ft | 437 kts | 202° |
| 2026-05-06 17:59 | 49.50155 | 3.10586 | 29897 ft | 438 kts | 218° |
| 2026-05-06 18:00 | 49.46046 | 3.03693 | 29893 ft | 439 kts | 237° |
| 2026-05-06 18:00 | 49.42993 | 2.95545 | 29895 ft | 440 kts | 240° |
| 2026-05-06 18:01 | 49.39957 | 2.87380 | 29900 ft | 440 kts | 240° |
| 2026-05-06 18:01 | 49.36908 | 2.79227 | 29896 ft | 441 kts | 240° |
| 2026-05-06 18:02 | 49.33849 | 2.71074 | 29901 ft | 441 kts | 240° |
| 2026-05-06 18:02 | 49.30907 | 2.62793 | 29899 ft | 442 kts | 242° |
| 2026-05-06 18:03 | 49.28329 | 2.55311 | 29908 ft | 443 kts | 242° |
| 2026-05-06 18:03 | 49.25421 | 2.46967 | 29916 ft | 444 kts | 242° |
| 2026-05-06 18:04 | 49.22470 | 2.38642 | 29914 ft | 445 kts | 242° |
| 2026-05-06 18:04 | 49.19502 | 2.30338 | 29922 ft | 445 kts | 242° |
| 2026-05-06 18:05 | 49.16479 | 2.22061 | 29930 ft | 446 kts | 241° |
| 2026-05-06 18:05 | 49.13416 | 2.13818 | 29929 ft | 446 kts | 241° |
| 2026-05-06 18:06 | 49.10502 | 2.05463 | 29927 ft | 446 kts | 249° |
| 2026-05-06 18:06 | 49.09056 | 1.96305 | 29930 ft | 444 kts | 265° |
| 2026-05-06 18:07 | 49.08359 | 1.86938 | 29934 ft | 445 kts | 264° |
| 2026-05-06 18:07 | 49.07629 | 1.77557 | 29933 ft | 445 kts | 264° |
| 2026-05-06 18:08 | 49.06893 | 1.68194 | 29934 ft | 444 kts | 264° |
| 2026-05-06 18:08 | 49.06149 | 1.58834 | 29949 ft | 444 kts | 264° |
| 2026-05-06 18:09 | 49.05405 | 1.49486 | 29962 ft | 444 kts | 264° |
| 2026-05-06 18:09 | 49.04660 | 1.40143 | 29970 ft | 444 kts | 264° |
| 2026-05-06 18:10 | 49.03897 | 1.30814 | 29972 ft | 443 kts | 264° |
| 2026-05-06 18:10 | 49.03231 | 1.21481 | 29973 ft | 442 kts | 270° |
| 2026-05-06 18:11 | 49.03488 | 1.12152 | 29976 ft | 440 kts | 274° |
| 2026-05-06 18:11 | 49.03777 | 1.02843 | 29977 ft | 440 kts | 274° |
| 2026-05-06 18:12 | 49.04047 | 0.93534 | 29978 ft | 439 kts | 274° |
| 2026-05-06 18:12 | 49.04315 | 0.84235 | 29975 ft | 439 kts | 274° |
| 2026-05-06 18:13 | 49.04573 | 0.75018 | 29972 ft | 438 kts | 273° |
| 2026-05-06 18:13 | 49.04828 | 0.65756 | 29971 ft | 437 kts | 273° |
| 2026-05-06 18:14 | 49.05079 | 0.56519 | 29964 ft | 436 kts | 273° |
| 2026-05-06 18:14 | 49.05322 | 0.47282 | 29966 ft | 435 kts | 273° |
| 2026-05-06 18:15 | 49.05545 | 0.38068 | 29967 ft | 435 kts | 272° |
| 2026-05-06 18:15 | 49.05761 | 0.28860 | 29973 ft | 434 kts | 272° |
| 2026-05-06 18:16 | 49.05977 | 0.19659 | 29972 ft | 434 kts | 272° |
| 2026-05-06 18:16 | 49.06187 | 0.10467 | 29979 ft | 434 kts | 272° |
| 2026-05-06 18:17 | 49.06381 | 0.01282 | 29978 ft | 433 kts | 272° |
| 2026-05-06 18:17 | 49.06574 | -0.07906 | 29983 ft | 433 kts | 272° |
| 2026-05-06 18:18 | 49.06762 | -0.17090 | 29985 ft | 433 kts | 272° |
| 2026-05-06 18:18 | 49.06940 | -0.26278 | 29985 ft | 433 kts | 271° |
| 2026-05-06 18:19 | 49.07113 | -0.35470 | 29984 ft | 434 kts | 271° |
| 2026-05-06 18:19 | 49.07280 | -0.44677 | 29985 ft | 434 kts | 271° |
| 2026-05-06 18:20 | 49.07442 | -0.53879 | 29989 ft | 434 kts | 271° |
| 2026-05-06 18:20 | 49.07593 | -0.63086 | 29986 ft | 434 kts | 271° |
| 2026-05-06 18:21 | 49.07741 | -0.72305 | 29987 ft | 435 kts | 272° |
| 2026-05-06 18:21 | 49.07824 | -0.76921 | 29749 ft | 436 kts | 272° |
| 2026-05-06 18:21 | 49.07916 | -0.81546 | 29461 ft | 436 kts | 272° |
| 2026-05-06 18:22 | 49.08012 | -0.86169 | 29173 ft | 437 kts | 272° |
| 2026-05-06 18:22 | 49.08109 | -0.90801 | 28889 ft | 437 kts | 272° |
| 2026-05-06 18:22 | 49.08201 | -0.95448 | 28609 ft | 438 kts | 272° |
| 2026-05-06 18:22 | 49.08286 | -1.00091 | 28337 ft | 439 kts | 272° |
| 2026-05-06 18:23 | 49.08366 | -1.04749 | 28064 ft | 439 kts | 272° |
| 2026-05-06 18:23 | 49.08442 | -1.09421 | 27788 ft | 440 kts | 272° |
| 2026-05-06 18:23 | 49.08518 | -1.14075 | 27260 ft | 437 kts | 272° |
| 2026-05-06 18:23 | 49.08596 | -1.18679 | 26535 ft | 432 kts | 272° |
| 2026-05-06 18:24 | 49.08672 | -1.23238 | 25839 ft | 428 kts | 272° |
| 2026-05-06 18:24 | 49.08745 | -1.27755 | 25167 ft | 424 kts | 272° |
| 2026-05-06 18:24 | 49.08812 | -1.32224 | 24502 ft | 420 kts | 272° |
| 2026-05-06 18:24 | 49.08876 | -1.36659 | 23841 ft | 416 kts | 272° |
| 2026-05-06 18:25 | 49.08940 | -1.41058 | 23135 ft | 413 kts | 271° |
| 2026-05-06 18:25 | 49.09002 | -1.45406 | 22513 ft | 407 kts | 271° |
| 2026-05-06 18:25 | 49.09063 | -1.49688 | 21914 ft | 402 kts | 271° |
| 2026-05-06 18:25 | 49.09120 | -1.53927 | 21349 ft | 397 kts | 271° |
| 2026-05-06 18:26 | 49.09175 | -1.58119 | 20789 ft | 393 kts | 271° |
| 2026-05-06 18:26 | 49.09229 | -1.62282 | 20264 ft | 390 kts | 271° |
| 2026-05-06 18:26 | 49.09280 | -1.66397 | 19739 ft | 387 kts | 271° |
| 2026-05-06 18:26 | 49.09327 | -1.70482 | 19246 ft | 384 kts | 271° |
| 2026-05-06 18:27 | 49.09373 | -1.74538 | 18755 ft | 381 kts | 271° |
| 2026-05-06 18:27 | 49.09419 | -1.78559 | 18281 ft | 377 kts | 271° |
| 2026-05-06 18:27 | 49.09463 | -1.82547 | 17768 ft | 373 kts | 271° |
| 2026-05-06 18:27 | 49.09507 | -1.86482 | 17295 ft | 368 kts | 271° |
| 2026-05-06 18:28 | 49.09548 | -1.90363 | 16822 ft | 364 kts | 271° |
| 2026-05-06 18:28 | 49.09585 | -1.94201 | 16341 ft | 360 kts | 271° |
| 2026-05-06 18:28 | 49.09620 | -1.97947 | 15871 ft | 356 kts | 271° |
| 2026-05-06 18:28 | 49.09653 | -2.01714 | 15376 ft | 353 kts | 271° |
| 2026-05-06 18:29 | 49.09684 | -2.05452 | 14891 ft | 350 kts | 271° |
| 2026-05-06 18:29 | 49.09716 | -2.09165 | 14380 ft | 349 kts | 271° |
| 2026-05-06 18:29 | 49.09746 | -2.12935 | 13760 ft | 359 kts | 271° |
| 2026-05-06 18:29 | 49.09775 | -2.16778 | 12520 ft | 366 kts | 271° |
| 2026-05-06 18:30 | 49.09803 | -2.20629 | 11192 ft | 368 kts | 271° |
| 2026-05-06 18:30 | 49.09833 | -2.24587 | 9881 ft | 368 kts | 271° |
| 2026-05-06 18:30 | 49.09862 | -2.28481 | 8511 ft | 366 kts | 270° |
| 2026-05-06 18:30 | 49.09886 | -2.32287 | 7680 ft | 351 kts | 270° |
| 2026-05-06 18:31 | 49.09909 | -2.35885 | 6919 ft | 336 kts | 270° |
| 2026-05-06 18:31 | 49.09931 | -2.39392 | 6198 ft | 324 kts | 270° |
| 2026-05-06 18:31 | 49.09949 | -2.42754 | 5545 ft | 310 kts | 270° |
| 2026-05-06 18:31 | 49.09965 | -2.45988 | 4909 ft | 300 kts | 270° |
| 2026-05-06 18:32 | 49.10094 | -2.49104 | 4266 ft | 290 kts | 284° |
| 2026-05-06 18:32 | 49.10961 | -2.51794 | 3694 ft | 279 kts | 311° |
| 2026-05-06 18:32 | 49.12482 | -2.53503 | 3161 ft | 269 kts | 339° |
| 2026-05-06 18:32 | 49.14273 | -2.53984 | 2751 ft | 257 kts | 5° |
| 2026-05-06 18:33 | 49.15452 | -2.53638 | 2571 ft | 252 kts | 20° |
| 2026-05-06 18:33 | 49.16907 | -2.52346 | 2317 ft | 235 kts | 43° |
| 2026-05-06 18:33 | 49.17879 | -2.50463 | 2082 ft | 220 kts | 63° |
| 2026-05-06 18:33 | 49.18346 | -2.48355 | 1994 ft | 201 kts | 82° |
| 2026-05-06 18:34 | 49.18522 | -2.46306 | 2050 ft | 194 kts | 83° |
| 2026-05-06 18:34 | 49.18702 | -2.44250 | 2012 ft | 191 kts | 83° |
| 2026-05-06 18:34 | 49.18872 | -2.42268 | 2004 ft | 190 kts | 83° |
| 2026-05-06 18:34 | 49.19044 | -2.40267 | 2011 ft | 190 kts | 83° |
| 2026-05-06 18:35 | 49.19215 | -2.38266 | 2009 ft | 190 kts | 83° |
| 2026-05-06 18:35 | 49.19385 | -2.36262 | 2013 ft | 190 kts | 83° |
| 2026-05-06 18:35 | 49.19555 | -2.34263 | 1993 ft | 190 kts | 83° |
| 2026-05-06 18:35 | 49.19726 | -2.32256 | 1826 ft | 190 kts | 83° |
| 2026-05-06 18:36 | 49.19895 | -2.30251 | 1594 ft | 190 kts | 83° |
| 2026-05-06 18:36 | 49.20060 | -2.28298 | 1335 ft | 179 kts | 83° |
| 2026-05-06 18:36 | 49.20214 | -2.26471 | 1095 ft | 167 kts | 83° |
| 2026-05-06 18:36 | 49.20356 | -2.24785 | 867 ft | 151 kts | 83° |
| 2026-05-06 18:37 | 49.20483 | -2.23283 | 670 ft | 135 kts | 83° |
| 2026-05-06 18:37 | 49.20600 | -2.21896 | 480 ft | 129 kts | 83° |
| 2026-05-06 18:37 | 49.20712 | -2.20545 | 318 ft | 127 kts | 83° |
| 2026-05-06 18:37 | 49.20813 | -2.19337 | 286 ft | 85 kts | 82° |
| 2026-05-06 18:38 | 49.20862 | -2.18789 | 283 ft | 36 kts | 82° |
| 2026-05-06 18:38 | 49.20883 | -2.18536 | 282 ft | 13 kts | 84° |
| 2026-05-06 18:38 | 49.20868 | -2.18395 | 283 ft | 14 kts | 128° |
| 2026-05-06 18:38 | 49.20790 | -2.18394 | 288 ft | 12 kts | 213° |
| 2026-05-06 18:39 | 49.20734 | -2.18491 | 284 ft | 13 kts | 255° |
| 2026-05-06 18:39 | 49.20724 | -2.18630 | 284 ft | 13 kts | 264° |
| 2026-05-06 18:39 | 49.20713 | -2.18776 | 284 ft | 14 kts | 262° |
| 2026-05-06 18:40 | 49.20685 | -2.19090 | 284 ft | 16 kts | 263° |
| 2026-05-06 18:40 | 49.20689 | -2.19257 | 284 ft | 16 kts | 284° |
| 2026-05-06 18:40 | 49.20710 | -2.19428 | 284 ft | 17 kts | 266° |
| 2026-05-06 18:40 | 49.20687 | -2.19604 | 287 ft | 17 kts | 248° |
| 2026-05-06 18:41 | 49.20616 | -2.19726 | 284 ft | 13 kts | 253° |
| 2026-05-06 18:41 | 49.20607 | -2.19836 | 284 ft | 7 kts | 263° |
| 2026-05-06 18:41 | 49.20576 | -2.19865 | 284 ft | 6 kts | 174° |
| 2026-05-06 18:41 | 49.20554 | -2.19862 | 284 ft | 3 kts | 174° |
| 2026-05-06 18:42 | 49.20540 | -2.19860 | 284 ft | 0 kts | 174° |